sensor_id;sensor_type;location;lat;lon;timestamp;pressure;altitude;pressure_sealevel;temperature;humidity
35435;BME280;21556;55.782;37.528;2023-02-15T00:01:09;100040.09;;;0.15;100.00
35435;BME280;21556;55.782;37.528;2023-02-15T00:03:36;100045.78;;;-0.04;100.00
35435;BME280;21556;55.782;37.528;2023-02-15T00:06:04;100039.38;;;0.18;100.00
35435;BME280;21556;55.782;37.528;2023-02-15T00:08:30;100031.34;;;0.13;100.00
35435;BME280;21556;55.782;37.528;2023-02-15T00:11:06;100049.22;;;0.23;100.00
35435;BME280;21556;55.782;37.528;2023-02-15T00:13:32;100047.13;;;0.18;100.00
35435;BME280;21556;55.782;37.528;2023-02-15T00:16:05;100044.88;;;0.09;100.00
35435;BME280;21556;55.782;37.528;2023-02-15T00:18:32;100039.31;;;0.03;100.00
35435;BME280;21556;55.782;37.528;2023-02-15T00:20:57;100049.03;;;0.07;100.00
35435;BME280;21556;55.782;37.528;2023-02-15T00:23:24;100041.88;;;0.03;100.00
35435;BME280;21556;55.782;37.528;2023-02-15T00:25:51;100053.41;;;-0.18;100.00
35435;BME280;21556;55.782;37.528;2023-02-15T00:28:17;100045.28;;;-0.11;100.00
35435;BME280;21556;55.782;37.528;2023-02-15T00:30:43;100039.69;;;0.22;100.00
35435;BME280;21556;55.782;37.528;2023-02-15T00:33:09;100046.34;;;0.06;100.00
35435;BME280;21556;55.782;37.528;2023-02-15T00:35:37;100039.16;;;0.28;100.00
35435;BME280;21556;55.782;37.528;2023-02-15T00:38:03;100041.47;;;0.23;100.00
35435;BME280;21556;55.782;37.528;2023-02-15T00:40:29;100046.34;;;0.47;100.00
35435;BME280;21556;55.782;37.528;2023-02-15T00:42:56;100051.47;;;0.32;100.00
35435;BME280;21556;55.782;37.528;2023-02-15T00:45:24;100055.47;;;0.14;100.00
35435;BME280;21556;55.782;37.528;2023-02-15T00:47:51;100057.06;;;0.12;100.00
35435;BME280;21556;55.782;37.528;2023-02-15T00:50:17;100062.25;;;0.40;100.00
35435;BME280;21556;55.782;37.528;2023-02-15T00:52:45;100061.69;;;0.44;100.00
35435;BME280;21556;55.782;37.528;2023-02-15T00:55:11;100058.06;;;0.55;100.00
35435;BME280;21556;55.782;37.528;2023-02-15T00:57:39;100068.88;;;0.63;100.00
35435;BME280;21556;55.782;37.528;2023-02-15T01:00:05;100068.09;;;0.51;100.00
35435;BME280;21556;55.782;37.528;2023-02-15T01:02:31;100062.91;;;0.22;100.00
35435;BME280;21556;55.782;37.528;2023-02-15T01:04:57;100063.94;;;0.11;100.00
35435;BME280;21556;55.782;37.528;2023-02-15T01:07:25;100063.00;;;0.24;100.00
35435;BME280;21556;55.782;37.528;2023-02-15T01:09:51;100057.19;;;-0.13;100.00
35435;BME280;21556;55.782;37.528;2023-02-15T01:12:18;100063.03;;;-0.03;100.00
35435;BME280;21556;55.782;37.528;2023-02-15T01:14:46;100067.59;;;0.15;100.00
35435;BME280;21556;55.782;37.528;2023-02-15T01:17:12;100063.81;;;0.10;100.00
35435;BME280;21556;55.782;37.528;2023-02-15T01:19:38;100065.78;;;0.14;100.00
35435;BME280;21556;55.782;37.528;2023-02-15T01:22:06;100060.63;;;0.14;100.00
35435;BME280;21556;55.782;37.528;2023-02-15T01:24:34;100072.53;;;0.25;100.00
35435;BME280;21556;55.782;37.528;2023-02-15T01:27:01;100061.91;;;0.34;100.00
35435;BME280;21556;55.782;37.528;2023-02-15T01:29:27;100070.69;;;0.51;100.00
35435;BME280;21556;55.782;37.528;2023-02-15T01:31:53;100065.72;;;0.12;100.00
35435;BME280;21556;55.782;37.528;2023-02-15T01:34:21;100081.47;;;0.17;100.00
35435;BME280;21556;55.782;37.528;2023-02-15T01:36:47;100070.75;;;0.24;100.00
35435;BME280;21556;55.782;37.528;2023-02-15T01:39:14;100075.91;;;0.37;100.00
35435;BME280;21556;55.782;37.528;2023-02-15T01:41:40;100082.69;;;0.50;100.00
35435;BME280;21556;55.782;37.528;2023-02-15T01:47:13;100082.16;;;0.14;100.00
35435;BME280;21556;55.782;37.528;2023-02-15T01:49:42;100075.06;;;-0.03;100.00
35435;BME280;21556;55.782;37.528;2023-02-15T01:52:11;100081.22;;;-0.14;100.00
35435;BME280;21556;55.782;37.528;2023-02-15T01:54:41;100080.59;;;0.03;100.00
35435;BME280;21556;55.782;37.528;2023-02-15T01:57:12;100084.31;;;0.35;100.00
35435;BME280;21556;55.782;37.528;2023-02-15T01:59:39;100088.41;;;0.31;100.00
35435;BME280;21556;55.782;37.528;2023-02-15T02:02:07;100085.41;;;0.38;100.00
35435;BME280;21556;55.782;37.528;2023-02-15T02:04:39;100088.56;;;-0.07;100.00
35435;BME280;21556;55.782;37.528;2023-02-15T02:07:06;100082.75;;;0.10;100.00
35435;BME280;21556;55.782;37.528;2023-02-15T02:09:34;100085.38;;;-0.03;100.00
35435;BME280;21556;55.782;37.528;2023-02-15T02:12:02;100083.44;;;0.21;100.00
35435;BME280;21556;55.782;37.528;2023-02-15T02:14:29;100084.56;;;-0.02;100.00
35435;BME280;21556;55.782;37.528;2023-02-15T02:17:12;100093.75;;;0.34;100.00
35435;BME280;21556;55.782;37.528;2023-02-15T02:20:05;100094.00;;;-0.03;100.00
35435;BME280;21556;55.782;37.528;2023-02-15T02:31:48;100104.19;;;-0.04;100.00
35435;BME280;21556;55.782;37.528;2023-02-15T02:34:32;100093.88;;;-0.04;100.00
35435;BME280;21556;55.782;37.528;2023-02-15T02:37:26;100095.16;;;0.29;100.00
35435;BME280;21556;55.782;37.528;2023-02-15T02:43:05;100097.88;;;0.04;100.00
35435;BME280;21556;55.782;37.528;2023-02-15T02:48:12;100102.53;;;-0.17;100.00
35435;BME280;21556;55.782;37.528;2023-02-15T02:50:42;100103.63;;;-0.13;100.00
35435;BME280;21556;55.782;37.528;2023-02-15T02:53:09;100103.13;;;0.06;100.00
35435;BME280;21556;55.782;37.528;2023-02-15T03:00:55;100110.75;;;0.31;100.00
35435;BME280;21556;55.782;37.528;2023-02-15T03:03:28;100111.38;;;0.00;100.00
35435;BME280;21556;55.782;37.528;2023-02-15T03:05:59;100114.53;;;0.22;100.00
35435;BME280;21556;55.782;37.528;2023-02-15T03:08:34;100114.81;;;-0.13;100.00
35435;BME280;21556;55.782;37.528;2023-02-15T03:11:03;100115.41;;;-0.43;100.00
35435;BME280;21556;55.782;37.528;2023-02-15T03:13:32;100125.38;;;-0.61;100.00
35435;BME280;21556;55.782;37.528;2023-02-15T03:16:01;100130.28;;;-0.39;100.00
35435;BME280;21556;55.782;37.528;2023-02-15T03:18:52;100131.00;;;-0.02;100.00
35435;BME280;21556;55.782;37.528;2023-02-15T03:21:37;100127.03;;;-0.10;100.00
35435;BME280;21556;55.782;37.528;2023-02-15T03:24:10;100122.75;;;-0.23;100.00
35435;BME280;21556;55.782;37.528;2023-02-15T03:26:39;100127.22;;;0.06;100.00
35435;BME280;21556;55.782;37.528;2023-02-15T03:29:09;100130.06;;;-0.29;100.00
35435;BME280;21556;55.782;37.528;2023-02-15T03:31:40;100131.88;;;-0.02;100.00
35435;BME280;21556;55.782;37.528;2023-02-15T03:34:10;100127.47;;;-0.29;100.00
35435;BME280;21556;55.782;37.528;2023-02-15T03:39:45;100130.78;;;-0.05;100.00
35435;BME280;21556;55.782;37.528;2023-02-15T03:42:28;100139.63;;;-0.28;100.00
35435;BME280;21556;55.782;37.528;2023-02-15T03:45:10;100137.16;;;-0.65;100.00
35435;BME280;21556;55.782;37.528;2023-02-15T03:47:41;100139.03;;;-0.24;100.00
35435;BME280;21556;55.782;37.528;2023-02-15T03:52:58;100143.59;;;-0.07;100.00
35435;BME280;21556;55.782;37.528;2023-02-15T03:55:25;100144.38;;;-0.21;100.00
35435;BME280;21556;55.782;37.528;2023-02-15T03:57:52;100144.56;;;-0.31;100.00
35435;BME280;21556;55.782;37.528;2023-02-15T04:00:39;100146.28;;;-0.57;100.00
35435;BME280;21556;55.782;37.528;2023-02-15T04:03:39;100139.66;;;-0.78;100.00
35435;BME280;21556;55.782;37.528;2023-02-15T04:06:06;100147.78;;;-0.85;100.00
35435;BME280;21556;55.782;37.528;2023-02-15T04:08:32;100149.75;;;-0.56;100.00
35435;BME280;21556;55.782;37.528;2023-02-15T04:11:17;100150.56;;;-0.82;100.00
35435;BME280;21556;55.782;37.528;2023-02-15T04:13:43;100146.41;;;-1.05;100.00
35435;BME280;21556;55.782;37.528;2023-02-15T04:16:09;100152.84;;;-0.87;100.00
35435;BME280;21556;55.782;37.528;2023-02-15T04:18:42;100146.03;;;-0.73;100.00
35435;BME280;21556;55.782;37.528;2023-02-15T04:21:30;100147.97;;;-0.82;100.00
35435;BME280;21556;55.782;37.528;2023-02-15T04:24:15;100151.94;;;-0.49;100.00
35435;BME280;21556;55.782;37.528;2023-02-15T04:27:00;100141.50;;;-0.64;100.00
35435;BME280;21556;55.782;37.528;2023-02-15T04:29:29;100148.66;;;-0.60;100.00
35435;BME280;21556;55.782;37.528;2023-02-15T04:31:57;100150.19;;;-0.50;100.00
35435;BME280;21556;55.782;37.528;2023-02-15T04:34:24;100145.25;;;-0.72;100.00
35435;BME280;21556;55.782;37.528;2023-02-15T04:36:50;100153.84;;;-0.46;100.00
35435;BME280;21556;55.782;37.528;2023-02-15T04:39:17;100152.50;;;-0.66;100.00
35435;BME280;21556;55.782;37.528;2023-02-15T04:41:46;100156.28;;;-0.61;100.00
35435;BME280;21556;55.782;37.528;2023-02-15T04:44:14;100160.78;;;-0.45;100.00
35435;BME280;21556;55.782;37.528;2023-02-15T04:46:40;100163.66;;;-0.79;100.00
35435;BME280;21556;55.782;37.528;2023-02-15T04:49:08;100155.59;;;-1.09;100.00
35435;BME280;21556;55.782;37.528;2023-02-15T04:51:34;100148.22;;;-0.91;100.00
35435;BME280;21556;55.782;37.528;2023-02-15T04:54:00;100147.13;;;-1.19;100.00
35435;BME280;21556;55.782;37.528;2023-02-15T04:56:25;100153.38;;;-1.16;100.00
35435;BME280;21556;55.782;37.528;2023-02-15T04:58:51;100149.06;;;-1.04;100.00
35435;BME280;21556;55.782;37.528;2023-02-15T05:01:18;100156.69;;;-0.80;100.00
35435;BME280;21556;55.782;37.528;2023-02-15T05:03:45;100156.16;;;-1.61;100.00
35435;BME280;21556;55.782;37.528;2023-02-15T05:06:11;100151.69;;;-1.15;100.00
35435;BME280;21556;55.782;37.528;2023-02-15T05:08:37;100155.25;;;-1.13;100.00
35435;BME280;21556;55.782;37.528;2023-02-15T05:11:03;100172.38;;;-1.51;100.00
35435;BME280;21556;55.782;37.528;2023-02-15T05:13:28;100175.63;;;-1.41;100.00
35435;BME280;21556;55.782;37.528;2023-02-15T05:15:54;100175.84;;;-1.13;100.00
35435;BME280;21556;55.782;37.528;2023-02-15T05:18:21;100181.09;;;-1.60;100.00
35435;BME280;21556;55.782;37.528;2023-02-15T05:20:47;100177.59;;;-1.26;100.00
35435;BME280;21556;55.782;37.528;2023-02-15T05:23:14;100181.34;;;-0.72;100.00
35435;BME280;21556;55.782;37.528;2023-02-15T05:25:40;100175.38;;;-0.71;100.00
35435;BME280;21556;55.782;37.528;2023-02-15T05:28:27;100174.88;;;-1.15;100.00
35435;BME280;21556;55.782;37.528;2023-02-15T05:31:06;100184.72;;;-0.85;100.00
35435;BME280;21556;55.782;37.528;2023-02-15T05:33:33;100178.78;;;-1.09;100.00
35435;BME280;21556;55.782;37.528;2023-02-15T05:36:00;100181.03;;;-0.88;100.00
35435;BME280;21556;55.782;37.528;2023-02-15T05:38:26;100185.53;;;-0.86;100.00
35435;BME280;21556;55.782;37.528;2023-02-15T05:40:52;100188.84;;;-0.75;100.00
35435;BME280;21556;55.782;37.528;2023-02-15T05:43:20;100191.25;;;-0.90;100.00
35435;BME280;21556;55.782;37.528;2023-02-15T05:45:48;100187.50;;;-1.07;100.00
35435;BME280;21556;55.782;37.528;2023-02-15T05:48:15;100196.09;;;-1.06;100.00
35435;BME280;21556;55.782;37.528;2023-02-15T05:50:41;100190.84;;;-1.44;100.00
35435;BME280;21556;55.782;37.528;2023-02-15T05:53:07;100193.44;;;-1.08;100.00
35435;BME280;21556;55.782;37.528;2023-02-15T05:55:33;100193.47;;;-1.31;100.00
35435;BME280;21556;55.782;37.528;2023-02-15T05:57:59;100195.97;;;-0.96;100.00
35435;BME280;21556;55.782;37.528;2023-02-15T06:00:25;100188.03;;;-1.48;100.00
35435;BME280;21556;55.782;37.528;2023-02-15T06:02:51;100196.50;;;-0.88;100.00
35435;BME280;21556;55.782;37.528;2023-02-15T06:05:17;100190.84;;;-0.71;100.00
35435;BME280;21556;55.782;37.528;2023-02-15T06:07:43;100193.53;;;-1.06;100.00
35435;BME280;21556;55.782;37.528;2023-02-15T06:10:10;100197.47;;;-1.11;100.00
35435;BME280;21556;55.782;37.528;2023-02-15T06:12:36;100199.16;;;-1.24;100.00
35435;BME280;21556;55.782;37.528;2023-02-15T06:15:03;100194.06;;;-0.99;100.00
35435;BME280;21556;55.782;37.528;2023-02-15T06:17:30;100211.75;;;-1.40;100.00
35435;BME280;21556;55.782;37.528;2023-02-15T06:19:56;100213.66;;;-1.84;100.00
35435;BME280;21556;55.782;37.528;2023-02-15T06:22:22;100223.94;;;-1.49;100.00
35435;BME280;21556;55.782;37.528;2023-02-15T06:24:48;100223.78;;;-1.27;100.00
35435;BME280;21556;55.782;37.528;2023-02-15T06:27:14;100222.84;;;-0.92;100.00
35435;BME280;21556;55.782;37.528;2023-02-15T06:29:43;100232.78;;;-1.69;100.00
35435;BME280;21556;55.782;37.528;2023-02-15T06:32:12;100236.78;;;-1.26;100.00
35435;BME280;21556;55.782;37.528;2023-02-15T06:34:38;100232.97;;;-1.07;100.00
35435;BME280;21556;55.782;37.528;2023-02-15T06:37:03;100222.91;;;-1.16;100.00
35435;BME280;21556;55.782;37.528;2023-02-15T06:39:32;100230.91;;;-1.00;100.00
35435;BME280;21556;55.782;37.528;2023-02-15T06:41:58;100230.63;;;-1.16;100.00
35435;BME280;21556;55.782;37.528;2023-02-15T06:44:24;100224.22;;;-1.09;100.00
35435;BME280;21556;55.782;37.528;2023-02-15T06:46:50;100230.50;;;-1.17;100.00
35435;BME280;21556;55.782;37.528;2023-02-15T06:49:17;100226.78;;;-0.98;100.00
35435;BME280;21556;55.782;37.528;2023-02-15T06:51:43;100229.22;;;-0.99;100.00
35435;BME280;21556;55.782;37.528;2023-02-15T06:54:09;100231.59;;;-0.90;100.00
35435;BME280;21556;55.782;37.528;2023-02-15T06:56:34;100232.06;;;-1.08;100.00
35435;BME280;21556;55.782;37.528;2023-02-15T06:59:00;100229.81;;;-1.03;100.00
35435;BME280;21556;55.782;37.528;2023-02-15T07:01:26;100234.78;;;-1.18;100.00
35435;BME280;21556;55.782;37.528;2023-02-15T07:03:52;100230.91;;;-1.00;100.00
35435;BME280;21556;55.782;37.528;2023-02-15T07:06:18;100231.94;;;-1.09;100.00
35435;BME280;21556;55.782;37.528;2023-02-15T07:08:47;100235.44;;;-1.09;100.00
35435;BME280;21556;55.782;37.528;2023-02-15T07:11:13;100236.75;;;-1.02;100.00
35435;BME280;21556;55.782;37.528;2023-02-15T07:14:18;100234.47;;;-0.86;100.00
35435;BME280;21556;55.782;37.528;2023-02-15T07:17:01;100226.44;;;-0.90;100.00
35435;BME280;21556;55.782;37.528;2023-02-15T07:19:32;100236.88;;;-1.01;100.00
35435;BME280;21556;55.782;37.528;2023-02-15T07:22:01;100237.66;;;-0.77;100.00
35435;BME280;21556;55.782;37.528;2023-02-15T07:24:33;100238.50;;;-0.89;100.00
35435;BME280;21556;55.782;37.528;2023-02-15T07:26:59;100244.00;;;-0.35;100.00
35435;BME280;21556;55.782;37.528;2023-02-15T07:29:25;100243.94;;;-0.73;100.00
35435;BME280;21556;55.782;37.528;2023-02-15T07:31:51;100241.13;;;-1.13;100.00
35435;BME280;21556;55.782;37.528;2023-02-15T07:34:17;100240.59;;;-1.09;100.00
35435;BME280;21556;55.782;37.528;2023-02-15T07:36:45;100238.28;;;-0.92;100.00
35435;BME280;21556;55.782;37.528;2023-02-15T07:39:16;100241.75;;;-0.55;100.00
35435;BME280;21556;55.782;37.528;2023-02-15T07:41:42;100241.00;;;-0.66;100.00
35435;BME280;21556;55.782;37.528;2023-02-15T07:44:14;100239.88;;;-0.69;100.00
35435;BME280;21556;55.782;37.528;2023-02-15T07:46:41;100244.28;;;-0.68;100.00
35435;BME280;21556;55.782;37.528;2023-02-15T07:49:07;100243.13;;;-0.97;100.00
35435;BME280;21556;55.782;37.528;2023-02-15T07:51:33;100243.41;;;-0.81;100.00
35435;BME280;21556;55.782;37.528;2023-02-15T07:54:01;100239.28;;;-0.54;100.00
35435;BME280;21556;55.782;37.528;2023-02-15T07:56:27;100248.72;;;-0.66;100.00
35435;BME280;21556;55.782;37.528;2023-02-15T07:58:53;100257.47;;;-0.64;100.00
35435;BME280;21556;55.782;37.528;2023-02-15T08:01:27;100243.47;;;-1.04;100.00
35435;BME280;21556;55.782;37.528;2023-02-15T08:03:55;100258.63;;;-0.72;100.00
35435;BME280;21556;55.782;37.528;2023-02-15T08:06:23;100258.28;;;-0.65;100.00
35435;BME280;21556;55.782;37.528;2023-02-15T08:08:50;100258.72;;;-0.70;100.00
35435;BME280;21556;55.782;37.528;2023-02-15T08:11:28;100259.78;;;-0.92;100.00
35435;BME280;21556;55.782;37.528;2023-02-15T08:14:10;100267.66;;;-1.02;100.00
35435;BME280;21556;55.782;37.528;2023-02-15T08:19:20;100269.88;;;-0.58;100.00
35435;BME280;21556;55.782;37.528;2023-02-15T08:21:51;100273.59;;;-0.66;100.00
35435;BME280;21556;55.782;37.528;2023-02-15T08:24:21;100267.88;;;-0.62;100.00
35435;BME280;21556;55.782;37.528;2023-02-15T08:26:48;100276.88;;;-0.69;100.00
35435;BME280;21556;55.782;37.528;2023-02-15T08:29:16;100279.03;;;-0.75;100.00
35435;BME280;21556;55.782;37.528;2023-02-15T08:31:43;100284.03;;;-0.65;100.00
35435;BME280;21556;55.782;37.528;2023-02-15T08:34:11;100285.03;;;-0.63;100.00
35435;BME280;21556;55.782;37.528;2023-02-15T08:36:43;100281.06;;;-0.46;100.00
35435;BME280;21556;55.782;37.528;2023-02-15T08:39:14;100285.91;;;-0.62;100.00
35435;BME280;21556;55.782;37.528;2023-02-15T08:41:43;100288.25;;;-0.54;100.00
35435;BME280;21556;55.782;37.528;2023-02-15T08:44:10;100288.78;;;-0.83;100.00
35435;BME280;21556;55.782;37.528;2023-02-15T08:46:39;100275.69;;;-0.49;100.00
35435;BME280;21556;55.782;37.528;2023-02-15T08:49:09;100288.91;;;-0.93;100.00
35435;BME280;21556;55.782;37.528;2023-02-15T08:51:37;100286.84;;;-0.74;100.00
35435;BME280;21556;55.782;37.528;2023-02-15T08:54:06;100285.50;;;-0.68;100.00
35435;BME280;21556;55.782;37.528;2023-02-15T08:56:35;100292.34;;;-0.44;100.00
35435;BME280;21556;55.782;37.528;2023-02-15T08:59:03;100289.09;;;-0.78;100.00
35435;BME280;21556;55.782;37.528;2023-02-15T09:01:33;100292.25;;;-0.20;100.00
35435;BME280;21556;55.782;37.528;2023-02-15T09:04:05;100287.78;;;-0.85;100.00
35435;BME280;21556;55.782;37.528;2023-02-15T09:07:09;100292.63;;;-0.53;100.00
35435;BME280;21556;55.782;37.528;2023-02-15T09:15:15;100285.22;;;-0.97;100.00
35435;BME280;21556;55.782;37.528;2023-02-15T09:18:38;100288.66;;;-0.73;100.00
35435;BME280;21556;55.782;37.528;2023-02-15T09:21:15;100288.53;;;-0.74;100.00
35435;BME280;21556;55.782;37.528;2023-02-15T09:23:46;100291.97;;;-0.62;100.00
35435;BME280;21556;55.782;37.528;2023-02-15T09:26:20;100289.19;;;-0.65;100.00
35435;BME280;21556;55.782;37.528;2023-02-15T09:28:53;100295.81;;;-0.68;100.00
35435;BME280;21556;55.782;37.528;2023-02-15T09:31:30;100288.00;;;-0.45;100.00
35435;BME280;21556;55.782;37.528;2023-02-15T09:33:59;100295.16;;;-0.41;100.00
35435;BME280;21556;55.782;37.528;2023-02-15T09:36:31;100306.72;;;-0.47;100.00
35435;BME280;21556;55.782;37.528;2023-02-15T09:44:42;100307.06;;;-0.55;100.00
35435;BME280;21556;55.782;37.528;2023-02-15T10:01:20;100311.31;;;-0.18;100.00
35435;BME280;21556;55.782;37.528;2023-02-15T10:06:36;100320.56;;;0.16;100.00
35435;BME280;21556;55.782;37.528;2023-02-15T10:23:58;100328.94;;;-0.25;100.00
35435;BME280;21556;55.782;37.528;2023-02-15T10:29:09;100331.94;;;-0.55;100.00
35435;BME280;21556;55.782;37.528;2023-02-15T10:34:20;100339.72;;;-0.30;100.00
35435;BME280;21556;55.782;37.528;2023-02-15T10:54:35;100360.31;;;-0.55;100.00
35435;BME280;21556;55.782;37.528;2023-02-15T10:58:17;100374.78;;;-0.57;100.00
35435;BME280;21556;55.782;37.528;2023-02-15T11:00:26;100367.63;;;-0.25;100.00
35435;BME280;21556;55.782;37.528;2023-02-15T11:03:16;100384.75;;;-0.62;100.00
35435;BME280;21556;55.782;37.528;2023-02-15T11:05:53;100385.09;;;-0.57;100.00
35435;BME280;21556;55.782;37.528;2023-02-15T11:08:24;100379.47;;;-0.52;100.00
35435;BME280;21556;55.782;37.528;2023-02-15T11:10:54;100380.31;;;-0.28;100.00
35435;BME280;21556;55.782;37.528;2023-02-15T11:13:25;100375.88;;;-0.42;100.00
35435;BME280;21556;55.782;37.528;2023-02-15T11:16:15;100387.53;;;-0.47;100.00
35435;BME280;21556;55.782;37.528;2023-02-15T11:18:44;100384.03;;;-0.36;100.00
35435;BME280;21556;55.782;37.528;2023-02-15T11:24:27;100388.56;;;-0.57;100.00
35435;BME280;21556;55.782;37.528;2023-02-15T11:29:53;100398.28;;;-0.41;100.00
35435;BME280;21556;55.782;37.528;2023-02-15T11:35:15;100392.53;;;-0.37;100.00
35435;BME280;21556;55.782;37.528;2023-02-15T11:37:51;100396.75;;;-0.14;100.00
35435;BME280;21556;55.782;37.528;2023-02-15T11:40:34;100418.34;;;-0.49;100.00
35435;BME280;21556;55.782;37.528;2023-02-15T11:43:06;100422.72;;;-0.59;100.00
35435;BME280;21556;55.782;37.528;2023-02-15T11:45:37;100419.16;;;-0.61;100.00
35435;BME280;21556;55.782;37.528;2023-02-15T11:48:11;100422.84;;;-0.46;100.00
35435;BME280;21556;55.782;37.528;2023-02-15T11:50:37;100423.03;;;-0.31;100.00
35435;BME280;21556;55.782;37.528;2023-02-15T11:53:18;100425.75;;;-0.53;100.00
35435;BME280;21556;55.782;37.528;2023-02-15T11:55:48;100418.69;;;-0.56;100.00
35435;BME280;21556;55.782;37.528;2023-02-15T11:58:46;100418.78;;;-0.31;100.00
35435;BME280;21556;55.782;37.528;2023-02-15T12:03:57;100429.13;;;-0.66;100.00
35435;BME280;21556;55.782;37.528;2023-02-15T12:09:37;100435.06;;;-0.55;100.00
35435;BME280;21556;55.782;37.528;2023-02-15T12:12:27;100435.66;;;-0.83;100.00
35435;BME280;21556;55.782;37.528;2023-02-15T12:15:01;100428.91;;;-0.57;100.00
35435;BME280;21556;55.782;37.528;2023-02-15T12:17:37;100438.31;;;-0.69;100.00
35435;BME280;21556;55.782;37.528;2023-02-15T12:20:24;100430.94;;;-0.65;100.00
35435;BME280;21556;55.782;37.528;2023-02-15T12:22:58;100431.72;;;-1.01;100.00
35435;BME280;21556;55.782;37.528;2023-02-15T12:25:51;100432.25;;;-0.58;100.00
35435;BME280;21556;55.782;37.528;2023-02-15T12:31:03;100447.72;;;-0.58;100.00
35435;BME280;21556;55.782;37.528;2023-02-15T12:33:38;100435.63;;;-1.06;100.00
35435;BME280;21556;55.782;37.528;2023-02-15T12:36:26;100447.06;;;-0.79;100.00
35435;BME280;21556;55.782;37.528;2023-02-15T12:41:36;100459.16;;;-0.78;100.00
35435;BME280;21556;55.782;37.528;2023-02-15T12:44:20;100456.56;;;-0.55;100.00
35435;BME280;21556;55.782;37.528;2023-02-15T12:47:03;100464.44;;;-0.53;100.00
35435;BME280;21556;55.782;37.528;2023-02-15T12:49:35;100469.38;;;-0.80;100.00
35435;BME280;21556;55.782;37.528;2023-02-15T12:52:04;100469.25;;;-0.81;100.00
35435;BME280;21556;55.782;37.528;2023-02-15T12:54:36;100468.13;;;-0.50;100.00
35435;BME280;21556;55.782;37.528;2023-02-15T12:57:27;100480.81;;;-0.76;100.00
35435;BME280;21556;55.782;37.528;2023-02-15T13:02:47;100481.31;;;-0.80;100.00
35435;BME280;21556;55.782;37.528;2023-02-15T13:08:08;100479.34;;;-0.73;100.00
35435;BME280;21556;55.782;37.528;2023-02-15T13:11:03;100486.28;;;-0.71;100.00
35435;BME280;21556;55.782;37.528;2023-02-15T13:13:36;100490.22;;;-0.53;100.00
35435;BME280;21556;55.782;37.528;2023-02-15T13:16:13;100494.91;;;-0.71;100.00
35435;BME280;21556;55.782;37.528;2023-02-15T13:18:45;100489.97;;;-0.56;100.00
35435;BME280;21556;55.782;37.528;2023-02-15T13:21:34;100499.94;;;-0.49;100.00
35435;BME280;21556;55.782;37.528;2023-02-15T13:24:06;100497.81;;;-0.55;100.00
35435;BME280;21556;55.782;37.528;2023-02-15T13:26:35;100505.44;;;-0.44;100.00
35435;BME280;21556;55.782;37.528;2023-02-15T13:29:31;100510.69;;;-0.55;100.00
35435;BME280;21556;55.782;37.528;2023-02-15T13:32:07;100514.97;;;-0.79;100.00
35435;BME280;21556;55.782;37.528;2023-02-15T13:34:36;100508.91;;;-0.67;100.00
35435;BME280;21556;55.782;37.528;2023-02-15T13:40:22;100516.09;;;-0.63;100.00
35435;BME280;21556;55.782;37.528;2023-02-15T13:43:05;100518.34;;;-0.68;100.00
35435;BME280;21556;55.782;37.528;2023-02-15T14:06:05;100532.53;;;-0.85;100.00
35435;BME280;21556;55.782;37.528;2023-02-15T14:11:34;100538.16;;;-0.67;100.00
35435;BME280;21556;55.782;37.528;2023-02-15T14:19:51;100550.47;;;-0.75;100.00
35435;BME280;21556;55.782;37.528;2023-02-15T14:22:33;100544.47;;;-1.09;100.00
35435;BME280;21556;55.782;37.528;2023-02-15T14:25:12;100549.44;;;-0.77;100.00
35435;BME280;21556;55.782;37.528;2023-02-15T14:30:48;100558.06;;;-0.88;100.00
35435;BME280;21556;55.782;37.528;2023-02-15T14:33:31;100556.81;;;-0.93;100.00
35435;BME280;21556;55.782;37.528;2023-02-15T14:35:59;100557.66;;;-1.16;100.00
35435;BME280;21556;55.782;37.528;2023-02-15T14:46:16;100568.53;;;-1.08;100.00
35435;BME280;21556;55.782;37.528;2023-02-15T14:49:06;100570.94;;;-0.88;100.00
35435;BME280;21556;55.782;37.528;2023-02-15T14:51:54;100576.25;;;-0.75;100.00
35435;BME280;21556;55.782;37.528;2023-02-15T15:02:20;100584.72;;;-1.21;100.00
35435;BME280;21556;55.782;37.528;2023-02-15T15:07:47;100580.63;;;-1.07;100.00
35435;BME280;21556;55.782;37.528;2023-02-15T15:12:48;100583.63;;;-1.13;100.00
35435;BME280;21556;55.782;37.528;2023-02-15T15:18:10;100586.41;;;-0.88;100.00
35435;BME280;21556;55.782;37.528;2023-02-15T15:20:55;100589.19;;;-0.97;100.00
35435;BME280;21556;55.782;37.528;2023-02-15T15:26:22;100595.88;;;-0.99;100.00
35435;BME280;21556;55.782;37.528;2023-02-15T15:34:24;100613.38;;;-1.16;100.00
35435;BME280;21556;55.782;37.528;2023-02-15T15:39:54;100606.59;;;-1.16;100.00
35435;BME280;21556;55.782;37.528;2023-02-15T15:50:58;100616.16;;;-1.25;100.00
35435;BME280;21556;55.782;37.528;2023-02-15T15:53:27;100629.22;;;-1.34;100.00
35435;BME280;21556;55.782;37.528;2023-02-15T15:55:59;100626.66;;;-1.34;100.00
35435;BME280;21556;55.782;37.528;2023-02-15T15:58:26;100624.06;;;-1.12;100.00
35435;BME280;21556;55.782;37.528;2023-02-15T16:01:09;100629.63;;;-1.17;100.00
35435;BME280;21556;55.782;37.528;2023-02-15T16:03:36;100631.09;;;-1.75;100.00
35435;BME280;21556;55.782;37.528;2023-02-15T16:06:05;100634.66;;;-1.63;100.00
35435;BME280;21556;55.782;37.528;2023-02-15T16:08:34;100632.41;;;-1.26;100.00
35435;BME280;21556;55.782;37.528;2023-02-15T16:11:28;100633.94;;;-1.50;100.00
35435;BME280;21556;55.782;37.528;2023-02-15T16:13:55;100637.13;;;-1.21;100.00
35435;BME280;21556;55.782;37.528;2023-02-15T16:16:24;100633.22;;;-0.93;100.00
35435;BME280;21556;55.782;37.528;2023-02-15T16:18:51;100651.06;;;-1.07;100.00